Thomson Dream — 9HA2381 — position and weather

sailwx.info

Track history (hours):
 
Tides and Currents Weather Stations Pressure Air Temp Water Temp Dewpoint Dewpoint Depression Visibility Wind Speed Wind Dir Waves Ship Positions

Thomson Dream

Last reported at 2017-Jun-20 17:15 UTC. Time now 2017-Jun-22 16:38 UTC.
Position N 37°07' E 024°55'.

Length 243 m; draft 7.6 m.

Type: Ship. MMSI: 248480975.

Date/timePositionNaut miles runAvg speedWind from/ knotsBaromVisibWave heightAir tempDewpointWater temp
2017-Jun-20 17:15N 37°07' E 024°55'311.5
2017-Jun-20 17:00N 37°10' E 024°56'611.6
2017-Jun-20 16:30N 37°15' E 024°58'611.9
2017-Jun-20 16:00N 37°21' E 025°01'611.1
2017-Jun-20 15:30N 37°26' E 024°59'2 3.5
2017-Jun-20 15:00N 37°26' E 024°57'0 0.0
2017-Jun-20 13:16N 37°26' E 024°57'0 0.0
2017-Jun-20 12:58N 37°26' E 024°57'0 0.0
2017-Jun-20 12:25N 37°26' E 024°57'0 0.0
2017-Jun-20 11:58N 37°26' E 024°57'0 0.0
2017-Jun-20 11:28N 37°26' E 024°57'0 0.0
2017-Jun-20 10:58N 37°26' E 024°57'0 0.0
2017-Jun-20 10:28N 37°26' E 024°57'0 0.0
2017-Jun-20 09:58N 37°26' E 024°57'0 0.0
2017-Jun-20 09:28N 37°26' E 024°57'0 0.0
2017-Jun-20 08:58N 37°26' E 024°57'0 0.0
2017-Jun-20 08:28N 37°26' E 024°57'0 0.0
2017-Jun-20 07:58N 37°26' E 024°57'0 0.0
2017-Jun-20 07:28N 37°26' E 024°57'0 0.0
2017-Jun-20 06:58N 37°26' E 024°57'0 0.0
2017-Jun-20 06:16N 37°26' E 024°57'0 0.0
2017-Jun-20 05:46N 37°26' E 024°57'0 0.0
2017-Jun-20 05:28N 37°26' E 024°57'0 0.0
2017-Jun-20 04:58N 37°26' E 024°57'0 0.0
2017-Jun-20 04:28N 37°26' E 024°57'0 0.6
2017-Jun-20 04:00N 37°26' E 024°57'611.0
2017-Jun-20 03:29N 37°25' E 025°04'818.0
2017-Jun-20 03:00N 37°21' E 025°13'918.6
2017-Jun-20 02:30N 37°18' E 025°24'918.2
2017-Jun-20 02:00N 37°16' E 025°36'917.8
2017-Jun-20 01:30N 37°14' E 025°46'  
2017-Jun-13 00:38N 43°53' E 014°30'318.9
2017-Jun-13 00:28N 43°54' E 014°26'919.1
2017-Jun-13 00:00N 43°59' E 014°16'1219.0
2017-Jun-12 23:24N 44°06' E 014°03'1118.8
2017-Jun-12 22:50N 44°14' E 013°53'618.8
2017-Jun-12 22:30N 44°19' E 013°48'918.7
2017-Jun-12 22:00N 44°27' E 013°41'918.7
2017-Jun-12 21:30N 44°35' E 013°34'918.8
2017-Jun-12 21:00N 44°43' E 013°28'918.5
2017-Jun-12 20:30N 44°51' E 013°21'917.6
2017-Jun-12 20:00N 44°59' E 013°15'714.8
2017-Jun-12 19:30N 45°05' E 013°09'611.7
2017-Jun-12 19:00N 45°10' E 013°04'612.7
2017-Jun-12 18:30N 45°15' E 013°00'612.0
2017-Jun-12 18:00N 45°21' E 012°59'612.2
2017-Jun-12 17:31N 45°23' E 012°51'816.6
2017-Jun-12 17:01N 45°22' E 012°39'714.4
2017-Jun-12 16:30N 45°24' E 012°29'4 8.9
2017-Jun-12 16:00N 45°26' E 012°23'3 5.2
2017-Jun-12 15:30N 45°26' E 012°19'0 0.9
2017-Jun-12 14:58N 45°26' E 012°19'0 0.0
2017-Jun-12 14:28N 45°26' E 012°19'0 0.0
2017-Jun-12 12:31N 45°26' E 012°19'0 0.0
2017-Jun-12 12:29N 45°26' E 012°19'0 0.0
2017-Jun-12 11:48N 45°26' E 012°19'0 0.0
2017-Jun-12 11:12N 45°26' E 012°19'0 0.0
2017-Jun-12 10:57N 45°26' E 012°19'0 0.0
2017-Jun-12 10:30N 45°26' E 012°19'0 0.0
2017-Jun-12 09:59N 45°26' E 012°19'0 0.0
2017-Jun-12 09:29N 45°26' E 012°19'0 0.0
2017-Jun-12 08:59N 45°26' E 012°19'0 0.0
2017-Jun-12 08:29N 45°26' E 012°19'0 0.0
2017-Jun-12 07:59N 45°26' E 012°19'0 0.0
2017-Jun-12 06:40N 45°26' E 012°19'0 0.0
2017-Jun-12 06:01N 45°26' E 012°19'0 0.0
2017-Jun-12 05:52N 45°26' E 012°19'0 0.0
2017-Jun-12 05:30N 45°26' E 012°19'0 0.8
2017-Jun-12 04:58N 45°26' E 012°19'2 5.2
2017-Jun-12 04:30N 45°25' E 012°22'7 9.3
2017-Jun-12 03:42N 45°23' E 012°32'317.6
2017-Jun-12 03:30N 45°21' E 012°36'612.7
2017-Jun-12 03:00N 45°21' E 012°45'0 0.5
2017-Jun-12 02:30N 45°21' E 012°46'0 0.5
2017-Jun-12 02:00N 45°21' E 012°46'0 0.6
2017-Jun-12 01:30N 45°22' E 012°47'0 0.5
2017-Jun-12 01:00N 45°22' E 012°47'0 0.6
2017-Jun-12 00:30N 45°22' E 012°47'0 0.6
2017-Jun-12 00:00N 45°22' E 012°48'0 0.6
2017-Jun-11 23:30N 45°22' E 012°48'0 0.6
2017-Jun-11 23:00N 45°22' E 012°48'0 0.7
2017-Jun-11 22:30N 45°23' E 012°48'1 1.0
2017-Jun-11 22:00N 45°23' E 012°49'2 4.4
2017-Jun-11 21:30N 45°25' E 012°51'510.6
2017-Jun-11 21:00N 45°27' E 012°58'510.4
2017-Jun-11 20:30N 45°29' E 013°05'510.1
2017-Jun-11 20:00N 45°31' E 013°11'510.5
2017-Jun-11 19:30N 45°33' E 013°18'510.5
2017-Jun-11 19:00N 45°35' E 013°25'510.1
2017-Jun-11 18:30N 45°37' E 013°32'4 8.7
2017-Jun-11 18:00N 45°37' E 013°38'4 8.7
2017-Jun-11 17:30N 45°34' E 013°42'1 2.5
2017-Jun-11 16:58N 45°33' E 013°44'0 0.0
2017-Jun-11 16:25N 45°33' E 013°44'0 0.0
2017-Jun-11 15:52N 45°33' E 013°44'0 0.0
2017-Jun-11 15:28N 45°33' E 013°44'0 0.0
2017-Jun-11 14:58N 45°33' E 013°44'0 0.0
2017-Jun-11 13:58N 45°33' E 013°44'0 0.0
2017-Jun-11 13:28N 45°33' E 013°44'0 0.0
2017-Jun-11 12:58N 45°33' E 013°44'0 0.0
2017-Jun-11 12:28N 45°33' E 013°44'0 0.0
2017-Jun-11 11:55N 45°33' E 013°44'0 0.0
2017-Jun-11 11:28N 45°33' E 013°44'0 0.0
2017-Jun-11 10:58N 45°33' E 013°44'0 0.0
2017-Jun-11 10:25N 45°33' E 013°44'0 0.0
2017-Jun-11 09:58N 45°33' E 013°44'0 0.0
2017-Jun-11 09:16N 45°33' E 013°44'0 0.0
2017-Jun-11 08:58N 45°33' E 013°44'0 0.0
2017-Jun-11 08:25N 45°33' E 013°44'0 0.0
2017-Jun-11 07:58N 45°33' E 013°44'0 0.0
2017-Jun-11 07:19N 45°33' E 013°44'0 0.0
2017-Jun-11 06:54N 45°33' E 013°44'0 0.0
2017-Jun-11 06:27N 45°33' E 013°44'0 0.0
2017-Jun-11 06:00N 45°33' E 013°44'0 0.5
2017-Jun-11 05:30N 45°33' E 013°44'1 1.7
2017-Jun-11 05:00N 45°33' E 013°42'713.4
2017-Jun-11 04:30N 45°35' E 013°33'917.1
2017-Jun-11 04:00N 45°30' E 013°23'917.2
2017-Jun-11 03:30N 45°24' E 013°13'917.2
2017-Jun-11 03:00N 45°16' E 013°15'917.7
2017-Jun-11 02:30N 45°07' E 013°18'815.3
2017-Jun-11 02:00N 45°00' E 013°22'611.8
2017-Jun-11 01:30N 44°55' E 013°25'612.2
2017-Jun-11 01:00N 44°50' E 013°30'611.9
2017-Jun-11 00:30N 44°45' E 013°34'611.9
2017-Jun-11 00:00N 44°40' E 013°39'611.9
2017-Jun-10 23:30N 44°35' E 013°44'611.6
2017-Jun-10 23:00N 44°30' E 013°48'611.6
2017-Jun-10 22:30N 44°25' E 013°52'611.4
2017-Jun-10 22:00N 44°20' E 013°57'816.3
2017-Jun-10 21:30N 44°13' E 014°03'917.2
2017-Jun-10 20:58N 44°06' E 014°10'817.1
2017-Jun-10 20:29N 43°59' E 014°16'917.1
2017-Jun-10 19:58N 43°52' E 014°24'2017.4
2017-Jun-10 18:51N 43°36' E 014°39'617.7
2017-Jun-10 18:30N 43°30' E 014°44'  
Track history (hours):
 
Tides and Currents Weather Stations Pressure Air Temp Water Temp Dewpoint Dewpoint Depression Visibility Wind Speed Wind Dir Waves Ship Positions

Thomson Dream

Last reported at 2017-Jun-20 17:15 UTC. Time now 2017-Jun-22 16:38 UTC.
Position N 37°07' E 024°55'.

Length 243 m; draft 7.6 m.

Type: Ship. MMSI: 248480975.

Date/timePositionNaut miles runAvg speedWind from/ knotsBaromVisibWave heightAir tempDewpointWater temp
2017-Jun-20 17:15N 37°07' E 024°55'311.5
2017-Jun-20 17:00N 37°10' E 024°56'611.6
2017-Jun-20 16:30N 37°15' E 024°58'611.9
2017-Jun-20 16:00N 37°21' E 025°01'611.1
2017-Jun-20 15:30N 37°26' E 024°59'2 3.5
2017-Jun-20 15:00N 37°26' E 024°57'0 0.0
2017-Jun-20 13:16N 37°26' E 024°57'0 0.0
2017-Jun-20 12:58N 37°26' E 024°57'0 0.0
2017-Jun-20 12:25N 37°26' E 024°57'0 0.0
2017-Jun-20 11:58N 37°26' E 024°57'0 0.0
2017-Jun-20 11:28N 37°26' E 024°57'0 0.0
2017-Jun-20 10:58N 37°26' E 024°57'0 0.0
2017-Jun-20 10:28N 37°26' E 024°57'0 0.0
2017-Jun-20 09:58N 37°26' E 024°57'0 0.0
2017-Jun-20 09:28N 37°26' E 024°57'0 0.0
2017-Jun-20 08:58N 37°26' E 024°57'0 0.0
2017-Jun-20 08:28N 37°26' E 024°57'0 0.0
2017-Jun-20 07:58N 37°26' E 024°57'0 0.0
2017-Jun-20 07:28N 37°26' E 024°57'0 0.0
2017-Jun-20 06:58N 37°26' E 024°57'0 0.0
2017-Jun-20 06:16N 37°26' E 024°57'0 0.0
2017-Jun-20 05:46N 37°26' E 024°57'0 0.0
2017-Jun-20 05:28N 37°26' E 024°57'0 0.0
2017-Jun-20 04:58N 37°26' E 024°57'0 0.0
2017-Jun-20 04:28N 37°26' E 024°57'0 0.6
2017-Jun-20 04:00N 37°26' E 024°57'611.0
2017-Jun-20 03:29N 37°25' E 025°04'818.0
2017-Jun-20 03:00N 37°21' E 025°13'918.6
2017-Jun-20 02:30N 37°18' E 025°24'918.2
2017-Jun-20 02:00N 37°16' E 025°36'917.8
2017-Jun-20 01:30N 37°14' E 025°46'  
2017-Jun-13 00:38N 43°53' E 014°30'318.9
2017-Jun-13 00:28N 43°54' E 014°26'919.1
2017-Jun-13 00:00N 43°59' E 014°16'1219.0
2017-Jun-12 23:24N 44°06' E 014°03'1118.8
2017-Jun-12 22:50N 44°14' E 013°53'618.8
2017-Jun-12 22:30N 44°19' E 013°48'918.7
2017-Jun-12 22:00N 44°27' E 013°41'918.7
2017-Jun-12 21:30N 44°35' E 013°34'918.8
2017-Jun-12 21:00N 44°43' E 013°28'918.5
2017-Jun-12 20:30N 44°51' E 013°21'917.6
2017-Jun-12 20:00N 44°59' E 013°15'714.8
2017-Jun-12 19:30N 45°05' E 013°09'611.7
2017-Jun-12 19:00N 45°10' E 013°04'612.7
2017-Jun-12 18:30N 45°15' E 013°00'612.0
2017-Jun-12 18:00N 45°21' E 012°59'612.2
2017-Jun-12 17:31N 45°23' E 012°51'816.6
2017-Jun-12 17:01N 45°22' E 012°39'714.4
2017-Jun-12 16:30N 45°24' E 012°29'4 8.9
2017-Jun-12 16:00N 45°26' E 012°23'3 5.2
2017-Jun-12 15:30N 45°26' E 012°19'0 0.9
2017-Jun-12 14:58N 45°26' E 012°19'0 0.0
2017-Jun-12 14:28N 45°26' E 012°19'0 0.0
2017-Jun-12 12:31N 45°26' E 012°19'0 0.0
2017-Jun-12 12:29N 45°26' E 012°19'0 0.0
2017-Jun-12 11:48N 45°26' E 012°19'0 0.0
2017-Jun-12 11:12N 45°26' E 012°19'0 0.0
2017-Jun-12 10:57N 45°26' E 012°19'0 0.0
2017-Jun-12 10:30N 45°26' E 012°19'0 0.0
2017-Jun-12 09:59N 45°26' E 012°19'0 0.0
2017-Jun-12 09:29N 45°26' E 012°19'0 0.0
2017-Jun-12 08:59N 45°26' E 012°19'0 0.0
2017-Jun-12 08:29N 45°26' E 012°19'0 0.0
2017-Jun-12 07:59N 45°26' E 012°19'0 0.0
2017-Jun-12 06:40N 45°26' E 012°19'0 0.0
2017-Jun-12 06:01N 45°26' E 012°19'0 0.0
2017-Jun-12 05:52N 45°26' E 012°19'0 0.0
2017-Jun-12 05:30N 45°26' E 012°19'0 0.8
2017-Jun-12 04:58N 45°26' E 012°19'2 5.2
2017-Jun-12 04:30N 45°25' E 012°22'7 9.3
2017-Jun-12 03:42N 45°23' E 012°32'317.6
2017-Jun-12 03:30N 45°21' E 012°36'612.7
2017-Jun-12 03:00N 45°21' E 012°45'0 0.5
2017-Jun-12 02:30N 45°21' E 012°46'0 0.5
2017-Jun-12 02:00N 45°21' E 012°46'0 0.6
2017-Jun-12 01:30N 45°22' E 012°47'0 0.5
2017-Jun-12 01:00N 45°22' E 012°47'0 0.6
2017-Jun-12 00:30N 45°22' E 012°47'0 0.6
2017-Jun-12 00:00N 45°22' E 012°48'0 0.6
2017-Jun-11 23:30N 45°22' E 012°48'0 0.6
2017-Jun-11 23:00N 45°22' E 012°48'0 0.7
2017-Jun-11 22:30N 45°23' E 012°48'1 1.0
2017-Jun-11 22:00N 45°23' E 012°49'2 4.4
2017-Jun-11 21:30N 45°25' E 012°51'510.6
2017-Jun-11 21:00N 45°27' E 012°58'510.4
2017-Jun-11 20:30N 45°29' E 013°05'510.1
2017-Jun-11 20:00N 45°31' E 013°11'510.5
2017-Jun-11 19:30N 45°33' E 013°18'510.5
2017-Jun-11 19:00N 45°35' E 013°25'510.1
2017-Jun-11 18:30N 45°37' E 013°32'4 8.7
2017-Jun-11 18:00N 45°37' E 013°38'4 8.7
2017-Jun-11 17:30N 45°34' E 013°42'1 2.5
2017-Jun-11 16:58N 45°33' E 013°44'0 0.0
2017-Jun-11 16:25N 45°33' E 013°44'0 0.0
2017-Jun-11 15:52N 45°33' E 013°44'0 0.0
2017-Jun-11 15:28N 45°33' E 013°44'0 0.0
2017-Jun-11 14:58N 45°33' E 013°44'0 0.0
2017-Jun-11 13:58N 45°33' E 013°44'0 0.0
2017-Jun-11 13:28N 45°33' E 013°44'0 0.0
2017-Jun-11 12:58N 45°33' E 013°44'0 0.0
2017-Jun-11 12:28N 45°33' E 013°44'0 0.0
2017-Jun-11 11:55N 45°33' E 013°44'0 0.0
2017-Jun-11 11:28N 45°33' E 013°44'0 0.0
2017-Jun-11 10:58N 45°33' E 013°44'0 0.0
2017-Jun-11 10:25N 45°33' E 013°44'0 0.0
2017-Jun-11 09:58N 45°33' E 013°44'0 0.0
2017-Jun-11 09:16N 45°33' E 013°44'0 0.0
2017-Jun-11 08:58N 45°33' E 013°44'0 0.0
2017-Jun-11 08:25N 45°33' E 013°44'0 0.0
2017-Jun-11 07:58N 45°33' E 013°44'0 0.0
2017-Jun-11 07:19N 45°33' E 013°44'0 0.0
2017-Jun-11 06:54N 45°33' E 013°44'0 0.0
2017-Jun-11 06:27N 45°33' E 013°44'0 0.0
2017-Jun-11 06:00N 45°33' E 013°44'0 0.5
2017-Jun-11 05:30N 45°33' E 013°44'1 1.7
2017-Jun-11 05:00N 45°33' E 013°42'713.4
2017-Jun-11 04:30N 45°35' E 013°33'917.1
2017-Jun-11 04:00N 45°30' E 013°23'917.2
2017-Jun-11 03:30N 45°24' E 013°13'917.2
2017-Jun-11 03:00N 45°16' E 013°15'917.7
2017-Jun-11 02:30N 45°07' E 013°18'815.3
2017-Jun-11 02:00N 45°00' E 013°22'611.8
2017-Jun-11 01:30N 44°55' E 013°25'612.2
2017-Jun-11 01:00N 44°50' E 013°30'611.9
2017-Jun-11 00:30N 44°45' E 013°34'611.9
2017-Jun-11 00:00N 44°40' E 013°39'611.9
2017-Jun-10 23:30N 44°35' E 013°44'611.6
2017-Jun-10 23:00N 44°30' E 013°48'611.6
2017-Jun-10 22:30N 44°25' E 013°52'611.4
2017-Jun-10 22:00N 44°20' E 013°57'816.3
2017-Jun-10 21:30N 44°13' E 014°03'917.2
2017-Jun-10 20:58N 44°06' E 014°10'817.1
2017-Jun-10 20:29N 43°59' E 014°16'917.1
2017-Jun-10 19:58N 43°52' E 014°24'2017.4
2017-Jun-10 18:51N 43°36' E 014°39'617.7
2017-Jun-10 18:30N 43°30' E 014°44'  

Dump ship's entire track history